createdAt,value
2019-03-26T00:00:35.847Z,6.12
2019-03-26T00:01:12.855Z,6.12
2019-03-26T00:01:46.842Z,6.06
2019-03-26T00:02:20.857Z,6.06
2019-03-26T00:02:55.125Z,6.06
2019-03-26T00:03:30.103Z,6.06
2019-03-26T00:04:06.320Z,6.06
2019-03-26T00:04:40.349Z,6.00
2019-03-26T00:05:14.117Z,6.00
2019-03-26T00:05:48.106Z,6.00
2019-03-26T00:06:22.118Z,6.00
2019-03-26T00:06:56.101Z,6.00
2019-03-26T00:07:31.288Z,6.00
2019-03-26T00:08:05.261Z,6.00
2019-03-26T00:08:39.321Z,5.94
2019-03-26T00:09:13.134Z,5.94
2019-03-26T00:09:47.386Z,5.94
2019-03-26T00:10:21.265Z,5.87
2019-03-26T00:10:55.340Z,5.87
2019-03-26T00:11:29.130Z,5.87
2019-03-26T00:12:03.310Z,5.87
2019-03-26T00:12:37.307Z,5.87
2019-03-26T00:13:11.131Z,5.94
2019-03-26T00:13:45.096Z,5.94
2019-03-26T00:14:18.978Z,5.94
2019-03-26T00:14:52.964Z,5.94
2019-03-26T00:15:26.870Z,5.94
2019-03-26T00:16:01.192Z,5.94
2019-03-26T00:16:35.222Z,6.00
2019-03-26T00:17:09.018Z,5.94
2019-03-26T00:17:42.894Z,5.94
2019-03-26T00:18:17.798Z,5.94
2019-03-26T00:18:51.680Z,5.94
2019-03-26T00:19:25.565Z,5.87
2019-03-26T00:20:01.085Z,5.87
2019-03-26T00:20:34.963Z,5.87
2019-03-26T00:21:08.730Z,5.81
2019-03-26T00:21:42.770Z,5.81
2019-03-26T00:22:16.704Z,5.81
2019-03-26T00:22:50.474Z,5.81
2019-03-26T00:23:24.446Z,5.81
2019-03-26T00:23:58.436Z,5.81
2019-03-26T00:24:32.294Z,5.81
2019-03-26T00:25:06.716Z,5.81
2019-03-26T00:25:40.552Z,5.81
2019-03-26T00:26:14.477Z,5.81
2019-03-26T00:26:48.496Z,5.75
2019-03-26T00:27:22.419Z,5.75
2019-03-26T00:27:56.463Z,5.75
2019-03-26T00:28:30.472Z,5.75
2019-03-26T00:29:04.360Z,5.75
2019-03-26T00:29:38.315Z,5.69
2019-03-26T00:30:12.583Z,5.69
2019-03-26T00:30:46.575Z,5.69
2019-03-26T00:31:20.526Z,5.69
2019-03-26T00:31:54.359Z,5.62
2019-03-26T00:32:28.385Z,5.62
2019-03-26T00:33:02.128Z,5.62
2019-03-26T00:33:36.909Z,5.62
2019-03-26T00:34:19.090Z,5.62
2019-03-26T00:34:46.865Z,5.56
2019-03-26T00:35:20.674Z,5.56
2019-03-26T00:35:54.786Z,5.56
2019-03-26T00:36:28.680Z,5.56
2019-03-26T00:37:02.634Z,5.56
2019-03-26T00:37:36.623Z,5.50
2019-03-26T00:38:10.504Z,5.50
2019-03-26T00:38:44.499Z,5.44
2019-03-26T00:39:18.310Z,5.44
2019-03-26T00:39:53.193Z,5.37
2019-03-26T00:40:27.094Z,5.37
2019-03-26T00:41:01.200Z,5.37
2019-03-26T00:41:34.899Z,5.37
2019-03-26T00:42:10.412Z,5.37
2019-03-26T00:42:44.388Z,5.37
2019-03-26T00:43:18.372Z,5.37
2019-03-26T00:43:52.264Z,5.37
2019-03-26T00:44:26.252Z,5.37
2019-03-26T00:45:00.356Z,5.37
2019-03-26T00:45:34.242Z,5.37
2019-03-26T00:46:08.127Z,5.31
2019-03-26T00:46:42.069Z,5.31
2019-03-26T00:47:16.858Z,5.31
2019-03-26T00:47:50.727Z,5.31
2019-03-26T00:48:24.615Z,5.31
2019-03-26T00:48:58.595Z,5.31
2019-03-26T00:49:32.470Z,5.31
2019-03-26T00:50:06.907Z,5.31
2019-03-26T00:50:40.869Z,5.31
2019-03-26T00:51:14.742Z,5.31
2019-03-26T00:51:49.696Z,5.31
2019-03-26T00:52:23.734Z,5.31
2019-03-26T00:52:57.602Z,5.31
2019-03-26T00:53:31.476Z,5.31
2019-03-26T00:54:05.349Z,5.37
2019-03-26T00:54:39.097Z,5.37
2019-03-26T00:55:22.573Z,5.37
2019-03-26T00:55:48.920Z,5.37
2019-03-26T00:56:22.690Z,5.37
2019-03-26T00:56:56.590Z,5.37
2019-03-26T00:57:30.466Z,5.37
2019-03-26T00:58:04.295Z,5.37
2019-03-26T00:58:38.158Z,5.37
2019-03-26T00:59:12.102Z,5.37
2019-03-26T00:59:47.038Z,5.37
2019-03-26T01:00:41.793Z,5.37
2019-03-26T01:01:15.786Z,5.37
2019-03-26T01:01:49.638Z,5.37
2019-03-26T01:02:23.708Z,5.31
2019-03-26T01:02:57.668Z,5.31
2019-03-26T01:03:31.528Z,5.31
2019-03-26T01:04:05.421Z,5.25
2019-03-26T01:04:39.438Z,5.25
2019-03-26T01:05:13.290Z,5.19
2019-03-26T01:05:47.106Z,5.12
2019-03-26T01:06:21.017Z,5.12
2019-03-26T01:06:54.900Z,5.06
2019-03-26T01:07:28.738Z,5.06
2019-03-26T01:08:02.638Z,5.00
2019-03-26T01:08:36.486Z,5.00
2019-03-26T01:09:10.294Z,4.94
2019-03-26T01:09:44.374Z,4.94
2019-03-26T01:10:26.904Z,4.94
2019-03-26T01:11:00.860Z,4.94
2019-03-26T01:11:36.584Z,4.94
2019-03-26T01:12:10.332Z,4.87
2019-03-26T01:12:44.240Z,4.87
2019-03-26T01:13:17.977Z,4.81
2019-03-26T01:13:51.893Z,4.81
2019-03-26T01:14:25.827Z,4.81
2019-03-26T01:14:59.730Z,4.75
2019-03-26T01:15:33.568Z,4.75
2019-03-26T01:16:07.365Z,4.75
2019-03-26T01:16:41.330Z,4.69
2019-03-26T01:17:16.268Z,4.69
2019-03-26T01:17:50.113Z,4.69
2019-03-26T01:18:24.026Z,4.69
2019-03-26T01:18:57.773Z,4.62
2019-03-26T01:19:31.486Z,4.69
2019-03-26T01:20:05.972Z,4.69
2019-03-26T01:20:41.520Z,4.62
2019-03-26T01:21:15.447Z,4.62
2019-03-26T01:21:49.172Z,4.69
2019-03-26T01:22:23.145Z,4.69
2019-03-26T01:22:57.189Z,4.69
2019-03-26T01:23:30.922Z,4.69
2019-03-26T01:24:04.805Z,4.69
2019-03-26T01:24:38.746Z,4.69
2019-03-26T01:25:12.949Z,4.69
2019-03-26T01:25:46.680Z,4.69
2019-03-26T01:26:20.647Z,4.69
2019-03-26T01:26:54.469Z,4.69
2019-03-26T01:27:28.312Z,4.69
2019-03-26T01:28:02.233Z,4.69
2019-03-26T01:28:36.172Z,4.69
2019-03-26T01:29:10.106Z,4.69
2019-03-26T01:29:43.972Z,4.75
2019-03-26T01:30:17.815Z,4.75
2019-03-26T01:30:51.657Z,4.75
2019-03-26T01:31:25.414Z,4.75
2019-03-26T01:31:59.266Z,4.75
2019-03-26T01:32:33.098Z,4.75
2019-03-26T01:33:06.924Z,4.75
2019-03-26T01:33:40.679Z,4.75
2019-03-26T01:34:14.608Z,4.69
2019-03-26T01:34:48.440Z,4.69
2019-03-26T01:35:22.166Z,4.69
2019-03-26T01:35:56.114Z,4.62
2019-03-26T01:36:31.568Z,4.62
2019-03-26T01:37:05.486Z,4.56
2019-03-26T01:37:39.388Z,4.56
2019-03-26T01:38:13.158Z,4.56
2019-03-26T01:38:46.906Z,4.50
2019-03-26T01:39:20.738Z,4.50
2019-03-26T01:39:54.456Z,4.44
2019-03-26T01:40:28.395Z,4.44
2019-03-26T01:41:02.432Z,4.37
2019-03-26T01:41:36.408Z,4.37
2019-03-26T01:42:10.480Z,4.37
2019-03-26T01:42:44.294Z,4.31
2019-03-26T01:43:18.172Z,4.31
2019-03-26T01:43:52.230Z,4.31
2019-03-26T01:44:26.046Z,4.25
2019-03-26T01:44:59.992Z,4.25
2019-03-26T01:45:33.905Z,4.25
2019-03-26T01:46:07.828Z,4.25
2019-03-26T01:46:41.777Z,4.19
2019-03-26T01:47:15.523Z,4.19
2019-03-26T01:47:49.334Z,4.12
2019-03-26T01:48:23.281Z,4.12
2019-03-26T01:48:57.094Z,4.12
2019-03-26T01:49:30.930Z,4.06
2019-03-26T01:50:05.818Z,4.06
2019-03-26T01:50:39.752Z,4.06
2019-03-26T01:51:13.576Z,4.06
2019-03-26T01:51:48.435Z,4.06
2019-03-26T01:52:23.058Z,4.06
2019-03-26T01:52:56.913Z,4.12
2019-03-26T01:53:30.730Z,4.12
2019-03-26T01:54:04.571Z,4.12
2019-03-26T01:54:38.520Z,4.19
2019-03-26T01:55:12.445Z,4.19
2019-03-26T01:55:46.189Z,4.25
2019-03-26T01:56:21.234Z,4.25
2019-03-26T01:56:54.977Z,4.31
2019-03-26T01:57:28.834Z,4.31
2019-03-26T01:58:02.899Z,4.37
2019-03-26T01:58:37.748Z,4.37
2019-03-26T01:59:11.586Z,4.37
2019-03-26T01:59:45.432Z,4.44
2019-03-26T02:00:19.363Z,4.44
2019-03-26T02:00:53.280Z,4.44
2019-03-26T02:01:27.208Z,4.50
2019-03-26T02:02:02.145Z,4.56
2019-03-26T02:02:36.073Z,4.56
2019-03-26T02:03:09.902Z,4.56
2019-03-26T02:03:43.854Z,4.62
2019-03-26T02:04:18.890Z,4.62
2019-03-26T02:05:00.035Z,4.62
2019-03-26T02:05:28.352Z,4.62
2019-03-26T02:06:02.316Z,4.62
2019-03-26T02:06:36.306Z,4.69
2019-03-26T02:07:10.097Z,4.69
2019-03-26T02:07:44.836Z,4.69
2019-03-26T02:08:18.705Z,4.69
2019-03-26T02:08:52.592Z,4.69
2019-03-26T02:09:26.464Z,4.69
2019-03-26T02:10:00.437Z,4.69
2019-03-26T02:10:35.644Z,4.69
2019-03-26T02:11:10.539Z,4.69
2019-03-26T02:11:44.338Z,4.69
2019-03-26T02:12:18.302Z,4.69
2019-03-26T02:12:52.246Z,4.69
2019-03-26T02:13:26.222Z,4.69
2019-03-26T02:13:59.982Z,4.69
2019-03-26T02:14:34.554Z,4.69
2019-03-26T02:15:11.849Z,4.75
2019-03-26T02:15:45.839Z,4.75
2019-03-26T02:16:19.830Z,4.75
2019-03-26T02:16:53.602Z,4.75
2019-03-26T02:17:27.440Z,4.69
2019-03-26T02:18:01.808Z,4.69
2019-03-26T02:18:35.672Z,4.69
2019-03-26T02:19:09.615Z,4.62
2019-03-26T02:19:43.416Z,4.62
2019-03-26T02:20:18.352Z,4.62
2019-03-26T02:20:52.178Z,4.56
2019-03-26T02:21:26.018Z,4.56
2019-03-26T02:21:59.838Z,4.50
2019-03-26T02:22:33.774Z,4.50
2019-03-26T02:23:07.597Z,4.44
2019-03-26T02:23:41.478Z,4.44
2019-03-26T02:24:15.402Z,4.37
2019-03-26T02:24:49.510Z,4.37
2019-03-26T02:25:23.266Z,4.31
2019-03-26T02:25:57.029Z,4.31
2019-03-26T02:26:30.942Z,4.25
2019-03-26T02:27:04.784Z,4.25
2019-03-26T02:27:38.592Z,4.25
2019-03-26T02:28:12.436Z,4.19
2019-03-26T02:28:46.387Z,4.19
2019-03-26T02:29:20.216Z,4.19
2019-03-26T02:29:54.050Z,4.19
2019-03-26T02:30:28.102Z,4.12
2019-03-26T02:31:02.404Z,4.12
2019-03-26T02:31:37.590Z,4.12
2019-03-26T02:32:11.386Z,4.19
2019-03-26T02:32:45.227Z,4.25
2019-03-26T02:33:19.634Z,4.25
2019-03-26T02:33:53.480Z,4.25
2019-03-26T02:34:27.318Z,4.25
2019-03-26T02:35:17.020Z,4.25
2019-03-26T02:35:37.123Z,4.25
2019-03-26T02:36:11.153Z,4.19
2019-03-26T02:36:45.101Z,4.19
2019-03-26T02:37:19.078Z,4.19
2019-03-26T02:37:53.955Z,4.19
2019-03-26T02:38:27.840Z,4.25
2019-03-26T02:39:01.700Z,4.25
2019-03-26T02:39:37.466Z,4.31
2019-03-26T02:40:12.106Z,4.31
2019-03-26T02:40:46.008Z,4.37
2019-03-26T02:41:19.856Z,4.37
2019-03-26T02:41:53.610Z,4.44
2019-03-26T02:42:27.560Z,4.44
2019-03-26T02:43:01.336Z,4.44
2019-03-26T02:43:35.314Z,4.44
2019-03-26T02:44:09.263Z,4.50
2019-03-26T02:44:43.037Z,4.50
2019-03-26T02:45:16.972Z,4.50
2019-03-26T02:45:51.088Z,4.50
2019-03-26T02:46:24.958Z,4.50
2019-03-26T02:46:58.977Z,4.56
2019-03-26T02:47:33.055Z,4.56
2019-03-26T02:48:06.931Z,4.56
2019-03-26T02:48:40.676Z,4.50
2019-03-26T02:49:14.451Z,4.56
2019-03-26T02:49:48.385Z,4.56
2019-03-26T02:50:22.184Z,4.56
2019-03-26T02:50:56.141Z,4.56
2019-03-26T02:51:29.991Z,4.56
2019-03-26T02:52:03.917Z,4.56
2019-03-26T02:52:37.826Z,4.56
2019-03-26T02:53:11.785Z,4.56
2019-03-26T02:53:45.700Z,4.56
2019-03-26T02:54:19.559Z,4.56
2019-03-26T02:54:53.378Z,4.50
2019-03-26T02:55:27.312Z,4.50
2019-03-26T02:56:01.524Z,4.50
2019-03-26T02:56:35.430Z,4.50
2019-03-26T02:57:09.272Z,4.44
2019-03-26T02:57:43.268Z,4.44
2019-03-26T02:58:17.194Z,4.44
2019-03-26T02:58:51.054Z,4.44
2019-03-26T02:59:24.880Z,4.44
2019-03-26T02:59:58.822Z,4.44
2019-03-26T03:00:32.762Z,4.44
2019-03-26T03:01:06.601Z,4.37
2019-03-26T03:01:40.392Z,4.37
2019-03-26T03:02:14.377Z,4.37
2019-03-26T03:02:48.394Z,4.37
2019-03-26T03:03:23.438Z,4.37
2019-03-26T03:03:57.346Z,4.37
2019-03-26T03:04:31.215Z,4.37
2019-03-26T03:05:05.917Z,4.37
2019-03-26T03:05:39.755Z,4.37
2019-03-26T03:06:13.670Z,4.44
2019-03-26T03:06:47.624Z,4.44
2019-03-26T03:07:21.596Z,4.44
2019-03-26T03:07:55.490Z,4.50
2019-03-26T03:08:29.357Z,4.50
2019-03-26T03:09:05.877Z,4.56
2019-03-26T03:09:39.725Z,4.50
2019-03-26T03:10:13.797Z,4.56
2019-03-26T03:10:47.652Z,4.50
2019-03-26T03:11:21.632Z,4.50
2019-03-26T03:11:55.463Z,4.50
2019-03-26T03:12:29.220Z,4.50
2019-03-26T03:13:03.155Z,4.44
2019-03-26T03:13:37.114Z,4.44
2019-03-26T03:14:10.906Z,4.44
2019-03-26T03:14:44.952Z,4.37
2019-03-26T03:15:18.920Z,4.37
2019-03-26T03:15:52.870Z,4.37
2019-03-26T03:16:26.724Z,4.37
2019-03-26T03:17:00.518Z,4.37
2019-03-26T03:17:34.313Z,4.37
2019-03-26T03:18:08.286Z,4.37
2019-03-26T03:18:43.785Z,4.37
2019-03-26T03:19:17.617Z,4.31
2019-03-26T03:19:51.493Z,4.31
2019-03-26T03:20:25.428Z,4.31
2019-03-26T03:20:59.390Z,4.31
2019-03-26T03:21:33.238Z,4.31
2019-03-26T03:22:07.173Z,4.31
2019-03-26T03:22:41.105Z,4.25
2019-03-26T03:23:14.917Z,4.25
2019-03-26T03:23:48.836Z,4.25
2019-03-26T03:24:22.676Z,4.25
2019-03-26T03:24:56.618Z,4.25
2019-03-26T03:25:30.376Z,4.25
2019-03-26T03:26:04.297Z,4.25
2019-03-26T03:26:38.043Z,4.25
2019-03-26T03:27:11.875Z,4.25
2019-03-26T03:27:45.587Z,4.25
2019-03-26T03:28:19.426Z,4.19
2019-03-26T03:28:56.329Z,4.25
2019-03-26T03:29:30.137Z,4.25
2019-03-26T03:30:06.511Z,4.25
2019-03-26T03:30:40.253Z,4.25
2019-03-26T03:31:14.174Z,4.25
2019-03-26T03:31:48.043Z,4.25
2019-03-26T03:32:21.998Z,4.25
2019-03-26T03:32:55.813Z,4.25
2019-03-26T03:33:29.733Z,4.25
2019-03-26T03:34:03.738Z,4.25
2019-03-26T03:34:37.714Z,4.31
2019-03-26T03:35:11.845Z,4.31
2019-03-26T03:35:52.668Z,4.31
2019-03-26T03:36:21.463Z,4.31
2019-03-26T03:36:55.297Z,4.37
2019-03-26T03:37:29.115Z,4.37
2019-03-26T03:38:02.925Z,4.37
2019-03-26T03:38:36.854Z,4.37
2019-03-26T03:39:10.709Z,4.37
2019-03-26T03:39:44.436Z,4.37
2019-03-26T03:40:18.296Z,4.37
2019-03-26T03:40:53.310Z,4.44
2019-03-26T03:41:27.268Z,4.50
2019-03-26T03:42:01.259Z,4.50
2019-03-26T03:42:35.509Z,4.56
2019-03-26T03:43:09.457Z,4.56
2019-03-26T03:43:43.218Z,4.62
2019-03-26T03:44:16.947Z,4.69
2019-03-26T03:44:50.643Z,4.75
2019-03-26T03:45:30.001Z,4.75
2019-03-26T03:46:04.246Z,4.81
2019-03-26T03:46:39.533Z,4.87
2019-03-26T03:47:15.909Z,4.87
2019-03-26T03:47:50.125Z,4.94
2019-03-26T03:48:25.163Z,4.94
2019-03-26T03:48:59.563Z,4.94
2019-03-26T03:49:33.429Z,4.94
2019-03-26T03:50:08.609Z,4.94
2019-03-26T03:50:44.472Z,4.94
2019-03-26T03:51:21.993Z,4.94
2019-03-26T03:51:56.969Z,5.00
2019-03-26T03:52:38.520Z,5.00
2019-03-26T03:53:15.640Z,5.00
2019-03-26T03:53:50.883Z,5.00
2019-03-26T03:54:25.235Z,5.06
2019-03-26T03:54:59.633Z,5.06
2019-03-26T03:55:33.894Z,5.06
2019-03-26T03:56:09.399Z,5.06
2019-03-26T03:56:45.063Z,5.06
2019-03-26T03:57:19.163Z,5.06
2019-03-26T03:57:55.151Z,5.00
2019-03-26T03:58:31.738Z,5.00
2019-03-26T03:59:07.644Z,5.00
2019-03-26T03:59:43.918Z,5.00
2019-03-26T04:00:33.677Z,5.00
2019-03-26T04:01:07.607Z,5.00
2019-03-26T04:01:41.579Z,5.00
2019-03-26T04:02:15.454Z,5.00
2019-03-26T04:02:50.291Z,5.00
2019-03-26T04:03:24.228Z,5.00
2019-03-26T04:03:58.079Z,5.00
2019-03-26T04:04:31.787Z,5.00
2019-03-26T04:05:05.769Z,5.00
2019-03-26T04:05:40.101Z,5.00
2019-03-26T04:06:14.063Z,5.00
2019-03-26T04:06:47.994Z,5.00
2019-03-26T04:07:21.881Z,5.06
2019-03-26T04:07:55.686Z,5.06
2019-03-26T04:08:29.651Z,5.06
2019-03-26T04:09:04.784Z,5.06
2019-03-26T04:09:38.530Z,5.06
2019-03-26T04:10:12.466Z,5.06
2019-03-26T04:10:46.558Z,5.06
2019-03-26T04:11:20.389Z,5.06
2019-03-26T04:11:54.261Z,5.06
2019-03-26T04:12:28.169Z,5.06
2019-03-26T04:13:02.081Z,5.06
2019-03-26T04:13:35.876Z,5.06
2019-03-26T04:14:09.869Z,5.06
2019-03-26T04:14:43.823Z,5.12
2019-03-26T04:15:17.842Z,5.12
2019-03-26T04:15:51.793Z,5.12
2019-03-26T04:16:25.643Z,5.12
2019-03-26T04:16:59.364Z,5.19
2019-03-26T04:17:34.486Z,5.19
2019-03-26T04:18:09.112Z,5.25
2019-03-26T04:18:43.074Z,5.25
2019-03-26T04:19:17.068Z,5.25
2019-03-26T04:19:51.025Z,5.31
2019-03-26T04:20:24.775Z,5.31
2019-03-26T04:20:58.646Z,5.31
2019-03-26T04:21:32.551Z,5.31
2019-03-26T04:22:06.425Z,5.31
2019-03-26T04:22:40.113Z,5.37
2019-03-26T04:23:14.005Z,5.37
2019-03-26T04:23:47.762Z,5.37
2019-03-26T04:24:21.556Z,5.44
2019-03-26T04:24:55.410Z,5.44
2019-03-26T04:25:29.394Z,5.44
2019-03-26T04:26:03.388Z,5.50
2019-03-26T04:26:37.237Z,5.50
2019-03-26T04:27:11.142Z,5.50
2019-03-26T04:27:45.186Z,5.50
2019-03-26T04:28:18.971Z,5.50
2019-03-26T04:28:52.774Z,5.50
2019-03-26T04:29:26.600Z,5.50
2019-03-26T04:30:00.427Z,5.50
2019-03-26T04:30:35.017Z,5.50
2019-03-26T04:31:09.976Z,5.50
2019-03-26T04:31:43.912Z,5.44
2019-03-26T04:32:17.721Z,5.50
2019-03-26T04:32:51.546Z,5.50
2019-03-26T04:33:25.510Z,5.50
2019-03-26T04:33:59.459Z,5.50
2019-03-26T04:34:33.411Z,5.56
2019-03-26T04:35:07.461Z,5.50
2019-03-26T04:35:41.382Z,5.50
2019-03-26T04:36:25.603Z,5.56
2019-03-26T04:36:57.522Z,5.50
2019-03-26T04:37:31.323Z,5.50
2019-03-26T04:38:05.454Z,5.50
2019-03-26T04:38:39.398Z,5.50
2019-03-26T04:39:13.200Z,5.50
2019-03-26T04:39:47.107Z,5.50
2019-03-26T04:40:21.014Z,5.44
2019-03-26T04:40:54.730Z,5.50
2019-03-26T04:41:28.842Z,5.50
2019-03-26T04:42:02.676Z,5.50
2019-03-26T04:42:36.572Z,5.50
2019-03-26T04:43:10.412Z,5.44
2019-03-26T04:43:44.160Z,5.44
2019-03-26T04:44:18.076Z,5.44
2019-03-26T04:44:52.057Z,5.37
2019-03-26T04:45:25.890Z,5.37
2019-03-26T04:45:59.850Z,5.37
2019-03-26T04:46:33.775Z,5.31
2019-03-26T04:47:09.104Z,5.31
2019-03-26T04:47:43.646Z,5.31
2019-03-26T04:48:17.641Z,5.31
2019-03-26T04:48:51.571Z,5.31
2019-03-26T04:49:25.431Z,5.31
2019-03-26T04:49:59.142Z,5.37
2019-03-26T04:50:33.033Z,5.37
2019-03-26T04:51:06.863Z,5.37
2019-03-26T04:51:40.763Z,5.37
2019-03-26T04:52:14.674Z,5.44
2019-03-26T04:52:49.110Z,5.44
2019-03-26T04:53:22.941Z,5.44
2019-03-26T04:53:56.902Z,5.50
2019-03-26T04:54:30.851Z,5.50
2019-03-26T04:55:04.825Z,5.56
2019-03-26T04:55:38.738Z,5.56
2019-03-26T04:56:12.610Z,5.56
2019-03-26T04:56:46.526Z,5.56
2019-03-26T04:57:20.434Z,5.56
2019-03-26T04:57:54.121Z,5.62
2019-03-26T04:58:29.512Z,5.62
2019-03-26T04:59:03.419Z,5.62
2019-03-26T04:59:37.659Z,5.62
2019-03-26T05:00:11.771Z,5.62
2019-03-26T05:00:45.758Z,5.62
2019-03-26T05:01:19.701Z,5.62
2019-03-26T05:01:53.572Z,5.69
2019-03-26T05:02:27.497Z,5.69
2019-03-26T05:03:01.361Z,5.69
2019-03-26T05:03:35.258Z,5.69
2019-03-26T05:04:09.227Z,5.69
2019-03-26T05:04:43.124Z,5.69
2019-03-26T05:05:17.070Z,5.75
2019-03-26T05:05:57.806Z,5.75
2019-03-26T05:06:38.153Z,5.75
2019-03-26T05:07:08.833Z,5.75
2019-03-26T05:07:42.793Z,5.75
2019-03-26T05:08:16.621Z,5.75
2019-03-26T05:08:50.477Z,5.75
2019-03-26T05:09:24.305Z,5.75
2019-03-26T05:09:58.235Z,5.81
2019-03-26T05:10:32.052Z,5.81
2019-03-26T05:11:06.022Z,5.81
2019-03-26T05:11:39.956Z,5.81
2019-03-26T05:12:13.896Z,5.81
2019-03-26T05:12:47.646Z,5.81
2019-03-26T05:13:21.512Z,5.81
2019-03-26T05:13:55.223Z,5.81
2019-03-26T05:14:28.988Z,5.87
2019-03-26T05:15:02.884Z,5.87
2019-03-26T05:15:36.741Z,5.87
2019-03-26T05:16:10.639Z,5.87
2019-03-26T05:16:44.496Z,5.81
2019-03-26T05:17:18.468Z,5.81
2019-03-26T05:17:52.322Z,5.81
2019-03-26T05:18:26.148Z,5.81
2019-03-26T05:18:59.977Z,5.81
2019-03-26T05:19:33.861Z,5.81
2019-03-26T05:20:08.317Z,5.81
2019-03-26T05:20:42.154Z,5.81
2019-03-26T05:21:16.005Z,5.87
2019-03-26T05:21:49.923Z,5.87
2019-03-26T05:22:24.588Z,5.87
2019-03-26T05:22:58.551Z,5.87
2019-03-26T05:23:32.415Z,5.87
2019-03-26T05:24:06.210Z,5.94
2019-03-26T05:24:40.098Z,5.94
2019-03-26T05:25:14.022Z,5.94
2019-03-26T05:25:47.863Z,5.94
2019-03-26T05:26:21.587Z,5.94
2019-03-26T05:26:55.554Z,5.94
2019-03-26T05:27:30.514Z,5.94
2019-03-26T05:28:04.501Z,5.94
2019-03-26T05:28:38.223Z,5.94
2019-03-26T05:29:12.205Z,5.94
2019-03-26T05:29:46.007Z,5.94
2019-03-26T05:30:19.778Z,5.94
2019-03-26T05:30:53.477Z,5.87
2019-03-26T05:31:27.220Z,5.87
2019-03-26T05:32:00.944Z,5.94
2019-03-26T05:32:35.211Z,5.94
2019-03-26T05:33:09.107Z,5.94
2019-03-26T05:33:42.964Z,5.94
2019-03-26T05:34:16.674Z,5.94
2019-03-26T05:34:50.566Z,5.94
2019-03-26T05:35:24.404Z,5.94
2019-03-26T05:35:58.359Z,5.94
2019-03-26T05:36:32.160Z,5.94
2019-03-26T05:37:06.080Z,5.94
2019-03-26T05:37:39.811Z,5.94
2019-03-26T05:38:13.649Z,6.00
2019-03-26T05:38:47.465Z,6.00
2019-03-26T05:39:21.222Z,6.00
2019-03-26T05:39:55.048Z,6.00
2019-03-26T05:40:29.017Z,6.00
2019-03-26T05:41:04.039Z,6.00
2019-03-26T05:41:38.013Z,6.00
2019-03-26T05:42:11.846Z,6.00
2019-03-26T05:42:45.691Z,6.00
2019-03-26T05:43:19.607Z,6.00
2019-03-26T05:43:53.566Z,6.00
2019-03-26T05:44:27.266Z,6.06
2019-03-26T05:45:01.110Z,6.06
2019-03-26T05:45:35.008Z,6.06
2019-03-26T05:46:08.768Z,6.06
2019-03-26T05:46:43.679Z,6.06
2019-03-26T05:47:17.535Z,6.06
2019-03-26T05:47:51.433Z,6.06
2019-03-26T05:48:26.336Z,6.06
2019-03-26T05:49:00.137Z,6.06
2019-03-26T05:49:33.899Z,6.06
2019-03-26T05:50:08.892Z,6.06
2019-03-26T05:50:42.778Z,6.06
2019-03-26T05:51:16.687Z,6.06
2019-03-26T05:51:50.617Z,6.06
2019-03-26T05:52:24.326Z,6.06
2019-03-26T05:52:58.111Z,6.06
2019-03-26T05:53:31.917Z,6.06
2019-03-26T05:54:05.734Z,6.06
2019-03-26T05:54:39.681Z,6.06
2019-03-26T05:55:13.705Z,6.06
2019-03-26T05:55:47.710Z,6.06
2019-03-26T05:56:21.616Z,6.06
2019-03-26T05:56:55.506Z,6.06
2019-03-26T05:57:29.274Z,6.12
2019-03-26T05:58:03.243Z,6.12
2019-03-26T05:58:37.026Z,6.12
2019-03-26T05:59:10.794Z,6.12
2019-03-26T05:59:44.729Z,6.12
2019-03-26T06:00:23.964Z,6.12
2019-03-26T06:00:57.989Z,6.12
2019-03-26T06:01:31.947Z,6.19
2019-03-26T06:02:14.269Z,6.19
2019-03-26T06:02:42.376Z,6.19
2019-03-26T06:03:16.294Z,6.19
2019-03-26T06:03:50.387Z,6.19
2019-03-26T06:04:24.379Z,6.19
2019-03-26T06:04:58.239Z,6.19
2019-03-26T06:05:32.170Z,6.19
2019-03-26T06:06:06.184Z,6.19
2019-03-26T06:06:39.941Z,6.19
2019-03-26T06:07:13.703Z,6.19
2019-03-26T06:07:47.587Z,6.19
2019-03-26T06:08:21.544Z,6.19
2019-03-26T06:08:55.357Z,6.19
2019-03-26T06:09:29.327Z,6.19
2019-03-26T06:10:04.553Z,6.19
2019-03-26T06:10:38.393Z,6.19
2019-03-26T06:11:12.381Z,6.19
2019-03-26T06:11:48.047Z,6.19
2019-03-26T06:12:21.924Z,6.19
2019-03-26T06:12:56.785Z,6.19
2019-03-26T06:13:30.798Z,6.19
2019-03-26T06:14:04.633Z,6.25
2019-03-26T06:14:39.463Z,6.25
2019-03-26T06:15:13.415Z,6.25
2019-03-26T06:15:47.459Z,6.31
2019-03-26T06:16:21.230Z,6.31
2019-03-26T06:16:55.185Z,6.31
2019-03-26T06:17:28.881Z,6.31
2019-03-26T06:18:02.729Z,6.31
2019-03-26T06:18:36.581Z,6.31
2019-03-26T06:19:10.575Z,6.31
2019-03-26T06:19:44.377Z,6.31
2019-03-26T06:20:18.347Z,6.31
2019-03-26T06:20:52.154Z,6.31
2019-03-26T06:21:26.003Z,6.31
2019-03-26T06:21:59.717Z,6.31
2019-03-26T06:22:33.600Z,6.31
2019-03-26T06:23:07.506Z,6.31
2019-03-26T06:23:41.275Z,6.31
2019-03-26T06:24:15.091Z,6.31
2019-03-26T06:24:48.875Z,6.37
2019-03-26T06:25:22.714Z,6.31
2019-03-26T06:25:57.718Z,6.31
2019-03-26T06:26:31.651Z,6.37
2019-03-26T06:27:05.491Z,6.37
2019-03-26T06:27:39.317Z,6.37
2019-03-26T06:28:13.174Z,6.37
2019-03-26T06:28:47.105Z,6.37
2019-03-26T06:29:20.993Z,6.37
2019-03-26T06:29:55.030Z,6.44
2019-03-26T06:30:28.916Z,6.44
2019-03-26T06:31:02.712Z,6.44
2019-03-26T06:31:36.565Z,6.44
2019-03-26T06:32:10.471Z,6.44
2019-03-26T06:32:44.581Z,6.50
2019-03-26T06:33:18.377Z,6.50
2019-03-26T06:33:52.255Z,6.50
2019-03-26T06:34:26.085Z,6.56
2019-03-26T06:34:59.893Z,6.56
2019-03-26T06:35:33.803Z,6.56
2019-03-26T06:36:07.664Z,6.56
2019-03-26T06:36:41.582Z,6.62
2019-03-26T06:37:18.172Z,6.62
2019-03-26T06:37:51.214Z,6.69
2019-03-26T06:38:25.095Z,6.69
2019-03-26T06:38:58.989Z,6.75
2019-03-26T06:39:32.737Z,6.81
2019-03-26T06:40:08.991Z,6.81
2019-03-26T06:40:43.946Z,6.87
2019-03-26T06:41:17.749Z,6.94
2019-03-26T06:41:51.613Z,7.00
2019-03-26T06:42:25.433Z,7.06
2019-03-26T06:42:59.273Z,7.06
2019-03-26T06:43:33.209Z,7.12
2019-03-26T06:44:06.934Z,7.19
2019-03-26T06:44:40.855Z,7.19
2019-03-26T06:45:15.271Z,7.25
2019-03-26T06:45:48.991Z,7.25
2019-03-26T06:46:22.743Z,7.31
2019-03-26T06:46:56.691Z,7.31
2019-03-26T06:47:30.503Z,7.31
2019-03-26T06:48:04.789Z,7.37
2019-03-26T06:48:38.653Z,7.37
2019-03-26T06:49:12.489Z,7.37
2019-03-26T06:49:46.369Z,7.37
2019-03-26T06:50:20.249Z,7.37
2019-03-26T06:50:54.211Z,7.37
2019-03-26T06:51:29.316Z,7.37
2019-03-26T06:52:03.286Z,7.37
2019-03-26T06:52:37.278Z,7.31
2019-03-26T06:53:11.269Z,7.31
2019-03-26T06:53:46.167Z,7.31
2019-03-26T06:54:19.949Z,7.31
2019-03-26T06:54:53.953Z,7.25
2019-03-26T06:55:27.929Z,7.25
2019-03-26T06:56:01.777Z,7.25
2019-03-26T06:56:35.656Z,7.19
2019-03-26T06:57:09.483Z,7.19
2019-03-26T06:57:43.487Z,7.19
2019-03-26T06:58:17.294Z,7.19
2019-03-26T06:58:51.283Z,7.12
2019-03-26T06:59:25.117Z,7.12
2019-03-26T06:59:58.865Z,7.12
2019-03-26T07:00:33.129Z,7.12
2019-03-26T07:01:07.108Z,7.06
2019-03-26T07:01:41.081Z,7.06
2019-03-26T07:02:14.945Z,7.06
2019-03-26T07:02:48.764Z,7.06
2019-03-26T07:03:22.785Z,7.06
2019-03-26T07:03:56.782Z,7.06
2019-03-26T07:04:30.693Z,7.06
2019-03-26T07:05:05.639Z,7.06
2019-03-26T07:05:39.486Z,7.06
2019-03-26T07:06:13.223Z,7.06
2019-03-26T07:06:47.165Z,7.06
2019-03-26T07:07:30.966Z,7.06
2019-03-26T07:07:56.657Z,7.06
2019-03-26T07:08:30.499Z,7.06
2019-03-26T07:09:06.584Z,7.06
2019-03-26T07:09:40.376Z,7.06
2019-03-26T07:10:21.904Z,7.06
2019-03-26T07:10:55.628Z,7.00
2019-03-26T07:11:30.917Z,7.00
2019-03-26T07:12:07.615Z,7.00
2019-03-26T07:12:40.364Z,7.00
2019-03-26T07:13:14.207Z,7.00
2019-03-26T07:13:48.113Z,6.94
2019-03-26T07:14:21.934Z,6.94
2019-03-26T07:14:55.862Z,6.94
2019-03-26T07:15:29.785Z,6.94
2019-03-26T07:16:03.764Z,6.94
2019-03-26T07:16:37.721Z,6.94
2019-03-26T07:17:11.738Z,6.94
2019-03-26T07:17:45.591Z,6.94
2019-03-26T07:18:19.467Z,6.94
2019-03-26T07:18:53.345Z,6.94
2019-03-26T07:19:27.125Z,6.94
2019-03-26T07:20:01.048Z,6.94
2019-03-26T07:20:34.838Z,6.94
2019-03-26T07:21:08.652Z,6.94
2019-03-26T07:21:49.595Z,7.00
2019-03-26T07:22:18.439Z,7.00
2019-03-26T07:22:52.261Z,7.00
2019-03-26T07:23:26.167Z,7.00
2019-03-26T07:24:00.140Z,7.00
2019-03-26T07:24:34.022Z,7.06
2019-03-26T07:25:08.439Z,7.06
2019-03-26T07:25:43.273Z,7.06
2019-03-26T07:26:17.246Z,7.12
2019-03-26T07:26:51.157Z,7.12
2019-03-26T07:27:25.103Z,7.19
2019-03-26T07:27:59.137Z,7.19
2019-03-26T07:28:34.517Z,7.19
2019-03-26T07:29:08.387Z,7.25
2019-03-26T07:29:42.304Z,7.25
2019-03-26T07:30:35.492Z,7.25
2019-03-26T07:31:09.327Z,7.31
2019-03-26T07:31:43.158Z,7.31
2019-03-26T07:32:16.869Z,7.37
2019-03-26T07:32:50.685Z,7.37
2019-03-26T07:33:24.501Z,7.37
2019-03-26T07:33:59.457Z,7.37
2019-03-26T07:34:33.398Z,7.37
2019-03-26T07:35:07.795Z,7.37
2019-03-26T07:35:42.050Z,7.37